Terminal Aerodrome Forecast
Issued by NWS Pueblo, CO

Home | Current Version | Previous Version | Text Only | Print | Product List | Glossary On
Versions: 1 2 3 4 5 6 7 8 9 10 11 12 13 14 15 16 17 18 19 20 21 22 23 24 25 26 27 28 29 30 31 32 33 34 35 36
000
FTUS45 KPUB 270542
TAFPUB
TAF
KPUB 270542Z 2706/2806 VRB06KT P6SM VCTS SCT050CB BKN120
      TEMPO 2706/2709 4SM -TSRA BKN030CB
     FM270900 10008KT P6SM SCT020 OVC040
     FM271300 VRB06KT P6SM BKN035
      TEMPO 2715/2718 BKN025
     FM271900 12011KT P6SM SCT025 BKN050
     FM272100 12012KT P6SM SCT050 SCT150
     FM272300 12010KT P6SM VCTS SCT040CB BKN200
     FM280300 09006KT P6SM BKN035=

USA.gov is the U.S. government's official web portal to all federal, state and local government web resources and services.